Time;durP1;ratioP1;P1;durP2;ratioP2;P2;SDS_P1;SDS_P2;PMS_P1;PMS_P2;Temp;Humidity;BMP_temperature;BMP_pressure;BME280_temperature;BME280_humidity;BME280_pressure;Samples;Min_cycle;Max_cycle;Signal;HPM_P1;HPM_P2
2022/03/19 00:02:25;;;;;;;14.30;10.83;;;8.30;99.90;;;;;;5088932;28;20177;-41
2022/03/19 00:04:51;;;;;;;13.97;10.83;;;8.20;99.90;;;;;;5087706;28;20191;-45
2022/03/19 00:07:17;;;;;;;12.00;10.73;;;8.10;99.90;;;;;;5088564;28;20195;-40
2022/03/19 00:09:43;;;;;;;16.83;11.30;;;8.30;99.90;;;;;;5087874;28;20422;-40
2022/03/19 00:12:14;;;;;;;12.20;10.30;;;8.20;99.90;;;;;;5087196;28;20570;-43
2022/03/19 00:14:41;;;;;;;14.10;10.47;;;8.10;99.90;;;;;;5088609;28;20185;-40
2022/03/19 00:17:07;;;;;;;14.20;11.17;;;8.50;99.90;;;;;;5088891;28;20504;-39
2022/03/19 00:19:33;;;;;;;12.93;10.50;;;8.40;99.90;;;;;;5087018;28;20493;-39
2022/03/19 00:21:58;;;;;;;12.57;8.90;;;8.40;99.90;;;;;;5082836;28;20275;-39
2022/03/19 00:24:24;;;;;;;10.43;9.43;;;8.60;99.90;;;;;;5082151;28;20176;-41
2022/03/19 00:26:50;;;;;;;12.20;10.63;;;8.60;99.90;;;;;;5088722;28;20185;-41
2022/03/19 00:29:15;;;;;;;14.53;10.57;;;8.60;99.90;;;;;;5088328;28;20330;-40
2022/03/19 00:31:41;;;;;;;13.43;11.27;;;8.70;99.90;;;;;;5086506;28;20234;-39
2022/03/19 00:34:07;;;;;;;13.47;10.37;;;8.50;99.90;;;;;;5088136;28;20180;-39
2022/03/19 00:36:32;;;;;;;15.80;10.43;;;8.40;99.90;;;;;;5087388;28;20189;-40
2022/03/19 00:38:58;;;;;;;12.13;10.50;;;8.30;99.90;;;;;;5082853;28;20215;-39
2022/03/19 00:41:23;;;;;;;14.47;10.17;;;8.40;99.90;;;;;;5085378;28;20250;-40
2022/03/19 00:43:49;;;;;;;10.83;9.73;;;8.50;99.90;;;;;;5088156;28;20219;-40
2022/03/19 00:46:15;;;;;;;11.60;9.80;;;8.40;99.90;;;;;;5088240;28;20667;-39
2022/03/19 00:48:42;;;;;;;11.30;10.00;;;8.40;99.90;;;;;;5087854;28;20531;-40
2022/03/19 00:51:08;;;;;;;13.07;10.07;;;8.10;99.90;;;;;;5085508;28;20445;-39
2022/03/19 00:53:33;;;;;;;12.00;9.53;;;8.10;99.90;;;;;;5079263;28;20403;-39
2022/03/19 00:55:59;;;;;;;11.67;10.47;;;8.30;99.90;;;;;;5087062;28;20234;-40
2022/03/19 00:58:25;;;;;;;11.23;9.57;;;8.10;99.90;;;;;;5087649;28;20290;-39
2022/03/19 01:00:50;;;;;;;14.40;10.00;;;8.30;99.90;;;;;;5087346;28;20752;-39
2022/03/19 01:03:16;;;;;;;11.50;10.20;;;8.30;99.90;;;;;;5088224;28;20176;-39
2022/03/19 01:05:43;;;;;;;13.43;9.90;;;8.30;99.90;;;;;;5087349;28;20192;-40
2022/03/19 01:08:09;;;;;;;15.70;10.40;;;8.30;99.90;;;;;;5080915;28;20496;-40
2022/03/19 01:10:35;;;;;;;10.10;8.80;;;8.40;99.90;;;;;;5086918;28;20827;-39
2022/03/19 01:13:04;;;;;;;14.40;10.23;;;8.30;99.90;;;;;;5087649;28;20419;-39
2022/03/19 01:15:29;;;;;;;15.30;10.07;;;8.30;99.90;;;;;;5087868;28;20480;-40
2022/03/19 01:17:55;;;;;;;12.80;10.30;;;8.40;99.90;;;;;;5087598;28;20478;-39
2022/03/19 01:20:22;;;;;;;13.90;9.43;;;8.40;99.90;;;;;;5085849;28;20208;-40
2022/03/19 01:22:48;;;;;;;13.30;9.80;;;8.30;99.90;;;;;;5086891;28;20414;-39
2022/03/19 01:25:16;;;;;;;10.73;9.57;;;8.20;99.90;;;;;;5079812;28;20429;-39
2022/03/19 01:27:44;;;;;;;10.93;9.60;;;8.30;99.90;;;;;;5087423;28;20843;-40
2022/03/19 01:30:11;;;;;;;12.60;9.80;;;8.10;99.90;;;;;;5085369;28;20445;-39
2022/03/19 01:32:37;;;;;;;11.53;9.80;;;8.30;99.90;;;;;;5087309;28;20421;-40
2022/03/19 01:35:04;;;;;;;12.23;10.50;;;8.20;99.90;;;;;;5086876;28;20438;-39
2022/03/19 01:37:30;;;;;;;12.20;10.20;;;8.30;99.90;;;;;;5087018;28;20508;-39
2022/03/19 01:39:56;;;;;;;14.23;10.60;;;8.10;99.90;;;;;;5080559;28;20418;-39
2022/03/19 01:42:29;;;;;;;11.47;10.27;;;8.40;99.90;;;;;;5087029;28;20221;-39
2022/03/19 01:44:57;;;;;;;11.77;10.43;;;8.30;99.90;;;;;;5087275;28;21228;-40
2022/03/19 01:47:24;;;;;;;14.60;10.87;;;7.90;99.90;;;;;;5085623;28;20462;-40
2022/03/19 01:49:50;;;;;;;12.37;10.37;;;7.90;99.90;;;;;;5085555;28;20418;-41
2022/03/19 01:52:16;;;;;;;12.70;9.63;;;7.90;99.90;;;;;;5085247;28;20870;-40
2022/03/19 01:54:44;;;;;;;13.93;11.40;;;8.00;99.90;;;;;;5086965;28;20426;-39
2022/03/19 01:57:17;;;;;;;12.23;10.87;;;8.00;99.90;;;;;;5086024;28;21181;-39
2022/03/19 01:59:43;;;;;;;20.23;11.93;;;7.60;99.90;;;;;;5086622;28;20792;-40
2022/03/19 02:02:12;;;;;;;14.40;11.00;;;7.80;99.90;;;;;;5085891;28;20480;-40
2022/03/19 02:04:40;;;;;;;15.20;11.37;;;7.50;99.90;;;;;;5087425;28;20410;-39
2022/03/19 02:07:10;;;;;;;14.40;11.03;;;7.70;99.90;;;;;;5086239;28;20430;-39
2022/03/19 02:09:36;;;;;;;13.10;11.23;;;7.70;99.90;;;;;;5083323;28;20564;-40
2022/03/19 02:12:03;;;;;;;13.93;10.87;;;7.80;99.90;;;;;;5087089;28;20549;-40
2022/03/19 02:14:32;;;;;;;12.50;11.20;;;7.70;99.90;;;;;;5087072;28;20414;-39
2022/03/19 02:17:00;;;;;;;13.17;10.87;;;7.70;99.90;;;;;;5085333;28;20476;-40
2022/03/19 02:19:25;;;;;;;14.93;12.33;;;7.40;99.90;;;;;;5087006;28;20418;-39
2022/03/19 02:21:51;;;;;;;13.83;11.73;;;7.60;99.90;;;;;;5085691;28;20970;-40
2022/03/19 02:27:02;;;;;;;14.57;11.17;;;7.30;99.90;;;;;;5046692;28;20555;-40
2022/03/19 02:29:28;;;;;;;13.30;11.90;;;7.40;99.90;;;;;;5046762;28;20439;-39
2022/03/19 02:31:59;;;;;;;16.23;12.30;;;7.30;99.90;;;;;;5046004;28;20424;-40
2022/03/19 02:34:25;;;;;;;15.03;12.43;;;7.20;99.90;;;;;;5046611;28;20198;-39
2022/03/19 02:36:51;;;;;;;12.70;10.50;;;7.10;99.90;;;;;;5058023;28;20447;-40
2022/03/19 02:39:18;;;;;;;11.53;10.43;;;7.10;99.90;;;;;;5070163;28;20426;-40
2022/03/19 02:41:50;;;;;;;14.87;10.70;;;7.20;99.90;;;;;;5046775;28;20428;-41
2022/03/19 02:44:18;;;;;;;13.47;11.80;;;7.10;99.90;;;;;;5051359;28;20926;-39
2022/03/19 02:46:49;;;;;;;14.30;12.80;;;6.80;99.90;;;;;;5051150;28;20857;-41
2022/03/19 02:49:16;;;;;;;17.30;12.53;;;6.90;99.90;;;;;;5046552;28;20421;-41
2022/03/19 02:51:44;;;;;;;13.47;12.10;;;6.70;99.90;;;;;;5052539;28;20447;-40
2022/03/19 02:54:13;;;;;;;15.63;12.73;;;6.60;99.90;;;;;;5064070;28;20430;-39
2022/03/19 02:56:41;;;;;;;13.77;11.83;;;6.80;99.90;;;;;;5048600;28;20460;-39
2022/03/19 02:59:12;;;;;;;15.60;12.70;;;6.90;99.90;;;;;;5049648;28;20470;-40
2022/03/19 03:01:39;;;;;;;13.60;11.47;;;7.00;99.90;;;;;;5048394;28;20423;-39
2022/03/19 03:04:05;;;;;;;13.13;11.73;;;7.00;99.90;;;;;;5046347;28;21102;-39
2022/03/19 03:06:36;;;;;;;13.57;12.13;;;7.10;99.90;;;;;;5049792;28;20446;-40
2022/03/19 03:09:02;;;;;;;13.43;12.03;;;6.90;99.90;;;;;;5080207;28;20445;-39
2022/03/19 03:11:28;;;;;;;14.07;12.57;;;6.80;99.90;;;;;;5050661;28;20443;-39
2022/03/19 03:13:54;;;;;;;16.00;13.53;;;7.00;99.90;;;;;;5050510;28;20588;-40
2022/03/19 03:16:20;;;;;;;14.10;11.93;;;6.70;99.90;;;;;;5050610;28;20273;-41
2022/03/19 03:18:46;;;;;;;15.20;13.37;;;6.80;99.90;;;;;;5048527;28;20209;-40
2022/03/19 03:21:12;;;;;;;16.97;13.40;;;6.70;99.90;;;;;;5053160;28;20447;-40
2022/03/19 03:23:38;;;;;;;15.70;12.43;;;6.70;99.90;;;;;;5071770;28;20901;-41
2022/03/19 03:26:03;;;;;;;17.20;13.30;;;6.50;99.90;;;;;;5065435;28;20523;-39
2022/03/19 03:28:29;;;;;;;17.13;14.30;;;6.50;99.90;;;;;;5049396;28;20527;-39
2022/03/19 03:30:55;;;;;;;14.70;13.20;;;6.50;99.90;;;;;;5058542;28;20208;-39
2022/03/19 03:33:22;;;;;;;17.90;13.90;;;6.40;99.90;;;;;;5049288;28;20600;-39
2022/03/19 03:35:48;;;;;;;15.33;13.47;;;6.40;99.90;;;;;;5049109;28;20544;-39
2022/03/19 03:38:13;;;;;;;16.10;13.77;;;6.10;99.90;;;;;;5070677;28;20473;-39
2022/03/19 03:40:41;;;;;;;14.50;13.00;;;6.20;99.90;;;;;;5066962;28;20353;-39
2022/03/19 03:43:07;;;;;;;15.10;13.23;;;6.20;99.90;;;;;;5049293;28;20239;-40
2022/03/19 03:45:34;;;;;;;17.47;13.63;;;6.30;99.90;;;;;;5055084;28;20478;-39
2022/03/19 03:47:59;;;;;;;17.93;14.10;;;6.40;99.90;;;;;;5049252;28;20528;-40
2022/03/19 03:50:25;;;;;;;17.97;13.43;;;6.30;99.90;;;;;;5048407;28;20436;-39
2022/03/19 03:52:51;;;;;;;15.63;13.93;;;6.50;99.90;;;;;;5067195;28;20403;-40
2022/03/19 03:55:17;;;;;;;16.83;13.40;;;6.50;99.90;;;;;;5065025;28;20526;-41
2022/03/19 03:57:43;;;;;;;16.80;13.80;;;6.40;99.90;;;;;;5056037;28;20221;-40
2022/03/19 04:00:09;;;;;;;21.10;14.73;;;6.20;99.90;;;;;;5060281;28;20432;-40
2022/03/19 04:02:36;;;;;;;15.27;12.93;;;6.30;99.90;;;;;;5047236;28;20190;-40
2022/03/19 04:05:03;;;;;;;15.37;13.77;;;6.30;99.90;;;;;;5049380;28;20435;-40
2022/03/19 04:07:30;;;;;;;15.60;12.83;;;6.30;99.90;;;;;;5055382;28;20547;-40
2022/03/19 04:09:56;;;;;;;18.10;13.53;;;6.10;99.90;;;;;;5069043;28;20531;-40
2022/03/19 04:12:22;;;;;;;14.97;13.30;;;6.40;99.90;;;;;;5050461;28;20460;-39
2022/03/19 04:14:49;;;;;;;16.03;13.60;;;6.40;99.90;;;;;;5052467;28;20781;-40
2022/03/19 04:17:15;;;;;;;18.13;13.80;;;6.50;99.90;;;;;;5057666;28;20459;-39
2022/03/19 04:19:41;;;;;;;14.53;12.70;;;6.30;99.90;;;;;;5047865;28;20452;-40
2022/03/19 04:22:07;;;;;;;15.57;12.93;;;6.40;99.90;;;;;;5051485;28;20501;-39
2022/03/19 04:24:33;;;;;;;14.90;13.50;;;6.50;99.90;;;;;;5053855;28;20613;-39
2022/03/19 04:26:59;;;;;;;23.37;13.87;;;6.60;99.90;;;;;;5054043;28;20581;-39
2022/03/19 04:29:25;;;;;;;16.60;12.93;;;6.60;99.90;;;;;;5048344;28;20456;-39
2022/03/19 04:31:51;;;;;;;13.90;12.50;;;6.70;99.90;;;;;;5057344;28;20455;-39
2022/03/19 04:34:17;;;;;;;13.83;12.37;;;6.60;99.90;;;;;;5047821;28;20456;-39
2022/03/19 04:36:42;;;;;;;17.30;13.33;;;6.80;99.90;;;;;;5047553;28;21042;-39
2022/03/19 04:39:09;;;;;;;15.30;12.70;;;6.60;99.90;;;;;;5061514;28;20216;-39
2022/03/19 04:41:36;;;;;;;14.50;12.73;;;6.70;99.90;;;;;;5061331;28;20271;-39
2022/03/19 04:44:02;;;;;;;17.37;14.17;;;6.80;99.90;;;;;;5047849;28;20955;-40
2022/03/19 04:46:28;;;;;;;14.30;12.27;;;6.70;99.90;;;;;;5053494;28;20919;-41
2022/03/19 04:48:54;;;;;;;16.63;13.50;;;6.80;99.90;;;;;;5047714;28;20445;-39
2022/03/19 04:51:21;;;;;;;15.00;12.70;;;6.60;99.90;;;;;;5046929;28;20619;-39
2022/03/19 04:53:50;;;;;;;13.10;11.80;;;6.80;99.90;;;;;;5058058;28;20440;-39
2022/03/19 04:56:22;;;;;;;16.37;12.23;;;6.70;99.90;;;;;;5066185;28;20461;-39
2022/03/19 04:58:49;;;;;;;14.13;12.30;;;6.70;99.90;;;;;;5047440;28;20482;-39
2022/03/19 05:01:16;;;;;;;13.73;12.30;;;6.60;99.90;;;;;;5049016;28;20435;-39
2022/03/19 05:03:41;;;;;;;15.60;12.00;;;6.50;99.90;;;;;;5047680;28;20984;-40
2022/03/19 05:06:07;;;;;;;19.87;11.77;;;6.70;99.90;;;;;;5047615;28;20436;-39
2022/03/19 05:08:32;;;;;;;12.90;10.93;;;6.70;99.90;;;;;;5070112;28;20193;-39
2022/03/19 05:11:14;;;;;;;15.57;11.80;;;6.60;99.90;;;;;;5068411;28;20190;-39
2022/03/19 05:13:53;;;;;;;14.43;11.87;;;6.60;99.90;;;;;;5047665;28;20435;-39
2022/03/19 05:16:18;;;;;;;12.50;11.07;;;6.70;99.90;;;;;;5052436;28;20772;-39
2022/03/19 05:18:44;;;;;;;16.00;12.20;;;6.50;99.90;;;;;;5047438;28;20521;-39
2022/03/19 05:21:12;;;;;;;17.07;12.57;;;6.60;99.90;;;;;;5046559;28;20436;-39
2022/03/19 05:23:38;;;;;;;15.37;11.60;;;6.70;99.90;;;;;;5066345;28;20287;-40
2022/03/19 05:26:04;;;;;;;12.73;11.00;;;6.60;99.90;;;;;;5065711;28;20511;-39
2022/03/19 05:28:30;;;;;;;13.57;10.77;;;6.50;99.90;;;;;;5046693;28;20447;-39
2022/03/19 05:31:01;;;;;;;14.67;12.00;;;6.60;99.90;;;;;;5047562;28;20839;-39
2022/03/19 05:36:27;;;;;;;12.97;11.20;;;6.70;99.90;;;;;;5038172;28;20923;-39
2022/03/19 05:38:53;;;;;;;13.37;11.63;;;6.70;99.90;;;;;;5057571;28;20471;-40
2022/03/19 05:41:19;;;;;;;14.90;11.20;;;6.70;99.90;;;;;;5071959;28;20916;-40
2022/03/19 05:43:45;;;;;;;15.50;12.03;;;6.70;99.90;;;;;;5047131;28;20436;-40
2022/03/19 05:46:10;;;;;;;13.63;12.10;;;6.60;99.90;;;;;;5057908;28;20431;-39
2022/03/19 05:48:36;;;;;;;14.63;11.80;;;6.50;99.90;;;;;;5047210;28;20742;-39
2022/03/19 05:51:01;;;;;;;14.77;11.60;;;6.60;99.90;;;;;;5046397;28;20193;-39
2022/03/19 05:53:28;;;;;;;14.20;11.53;;;6.90;99.90;;;;;;5059604;28;20192;-39
2022/03/19 05:55:53;;;;;;;18.17;10.80;;;6.60;99.90;;;;;;5069336;28;20207;-39
2022/03/19 05:58:19;;;;;;;17.57;12.77;;;6.70;99.90;;;;;;5046668;28;20479;-39
2022/03/19 06:00:45;;;;;;;14.53;12.20;;;6.60;99.90;;;;;;5053094;28;20552;-39
2022/03/19 06:03:10;;;;;;;15.20;12.00;;;6.80;99.90;;;;;;5047375;28;20185;-40
2022/03/19 06:05:36;;;;;;;20.47;12.47;;;6.70;99.90;;;;;;5047008;28;20185;-41
2022/03/19 06:08:03;;;;;;;14.10;12.73;;;6.50;99.90;;;;;;5051481;28;20248;-39
2022/03/19 06:10:29;;;;;;;14.30;11.83;;;6.50;99.90;;;;;;5078111;28;20193;-39
2022/03/19 06:12:54;;;;;;;12.97;10.93;;;6.60;99.90;;;;;;5046626;28;20443;-40
2022/03/19 06:15:20;;;;;;;17.43;12.93;;;6.60;99.90;;;;;;5048143;28;20189;-40
2022/03/19 06:17:46;;;;;;;16.70;11.67;;;6.50;99.90;;;;;;5046350;28;20644;-39
2022/03/19 06:20:11;;;;;;;15.43;10.70;;;6.60;99.90;;;;;;5046054;28;20611;-39
2022/03/19 06:22:40;;;;;;;16.27;11.50;;;6.70;99.90;;;;;;5048916;28;20539;-39
2022/03/19 06:25:06;;;;;;;13.07;11.23;;;6.80;99.90;;;;;;5074286;28;20453;-39
2022/03/19 06:27:31;;;;;;;15.63;12.73;;;6.90;99.90;;;;;;5046218;28;20432;-39
2022/03/19 06:29:57;;;;;;;16.13;11.63;;;6.90;99.90;;;;;;5045969;28;20846;-39
2022/03/19 06:32:23;;;;;;;18.83;12.27;;;6.90;99.90;;;;;;5046283;28;20425;-40
2022/03/19 06:34:48;;;;;;;13.37;10.60;;;6.90;99.90;;;;;;5046603;28;20293;-40
2022/03/19 06:37:20;;;;;;;15.63;11.80;;;7.00;99.90;;;;;;5045667;28;20233;-39
2022/03/19 06:39:53;;;;;;;13.20;11.07;;;7.30;99.90;;;;;;5049038;28;20192;-39
2022/03/19 06:42:19;;;;;;;14.77;11.30;;;7.20;99.90;;;;;;5054471;28;20427;-39
2022/03/19 06:44:45;;;;;;;13.37;11.00;;;7.20;99.90;;;;;;5050242;28;20424;-39
2022/03/19 06:47:10;;;;;;;16.83;10.67;;;7.30;99.90;;;;;;5055887;28;20481;-39
2022/03/19 06:49:36;;;;;;;12.50;10.87;;;7.30;99.90;;;;;;5049516;28;20281;-39
2022/03/19 06:52:02;;;;;;;12.40;9.80;;;7.40;99.90;;;;;;5049252;28;20186;-39
2022/03/19 06:54:28;;;;;;;13.60;10.60;;;7.20;99.90;;;;;;5053830;28;20673;-39
2022/03/19 06:56:54;;;;;;;18.43;10.20;;;7.30;99.90;;;;;;5066040;28;20447;-39
2022/03/19 06:59:20;;;;;;;19.07;10.40;;;7.20;99.90;;;;;;5050112;28;20658;-40
2022/03/19 07:01:46;;;;;;;12.20;9.43;;;7.40;99.90;;;;;;5052480;28;20543;-40
2022/03/19 07:04:11;;;;;;;15.77;11.93;;;7.30;99.90;;;;;;5050045;28;20457;-39
2022/03/19 07:06:37;;;;;;;15.47;10.63;;;7.40;99.90;;;;;;5049779;28;20296;-39
2022/03/19 07:09:06;;;;;;;12.80;10.20;;;7.40;99.90;;;;;;5061640;28;20208;-39
2022/03/19 07:11:35;;;;;;;15.87;10.47;;;7.60;99.90;;;;;;5065736;28;20189;-40
2022/03/19 07:14:03;;;;;;;13.47;10.67;;;7.70;99.90;;;;;;5049747;28;20436;-41
2022/03/19 07:16:29;;;;;;;17.20;11.30;;;7.70;99.90;;;;;;5058156;28;20438;-39
2022/03/19 07:18:55;;;;;;;15.93;9.63;;;7.70;99.90;;;;;;5053090;28;20475;-39
2022/03/19 07:21:22;;;;;;;16.50;10.37;;;7.60;99.90;;;;;;5048722;28;20440;-38
2022/03/19 07:23:48;;;;;;;15.47;10.03;;;7.40;99.90;;;;;;5056584;28;20448;-39
2022/03/19 07:26:14;;;;;;;15.70;10.30;;;7.60;99.90;;;;;;5060742;28;20429;-39
2022/03/19 07:28:40;;;;;;;12.50;11.30;;;7.90;99.90;;;;;;5051425;28;20805;-39
2022/03/19 07:31:06;;;;;;;19.23;10.80;;;8.20;99.90;;;;;;5052789;28;20345;-39
2022/03/19 07:33:34;;;;;;;14.00;10.47;;;8.30;99.90;;;;;;5052699;28;20443;-39
2022/03/19 07:36:04;;;;;;;12.30;10.60;;;8.30;99.90;;;;;;5049607;28;20436;-39
2022/03/19 07:38:33;;;;;;;10.93;9.20;;;8.50;99.90;;;;;;5054693;28;20482;-39
2022/03/19 07:43:43;;;;;;;13.40;10.60;;;8.70;99.90;;;;;;5049255;28;20428;-39
2022/03/19 07:46:10;;;;;;;11.50;9.27;;;9.00;99.90;;;;;;5052608;28;20438;-39
2022/03/19 07:48:36;;;;;;;16.73;10.40;;;9.10;99.90;;;;;;5054617;28;20781;-39
2022/03/19 07:51:02;;;;;;;10.33;9.23;;;9.20;99.90;;;;;;5068087;28;20420;-40
2022/03/19 07:53:27;;;;;;;11.33;10.17;;;9.40;99.90;;;;;;5069996;28;20651;-39
2022/03/19 07:55:56;;;;;;;13.83;10.20;;;9.30;99.90;;;;;;5076645;28;20663;-39
2022/03/19 07:58:22;;;;;;;12.00;10.50;;;9.60;99.90;;;;;;5047623;28;20256;-41
2022/03/19 08:00:47;;;;;;;13.27;9.77;;;9.50;99.90;;;;;;5048494;28;20436;-40
2022/03/19 08:03:13;;;;;;;12.70;9.90;;;9.60;99.90;;;;;;5055132;28;20459;-39
2022/03/19 08:05:42;;;;;;;12.20;10.00;;;9.80;99.90;;;;;;5069112;28;20687;-41
2022/03/19 08:08:07;;;;;;;13.03;9.60;;;9.80;99.90;;;;;;5062483;28;20308;-39
2022/03/19 08:10:36;;;;;;;15.70;10.27;;;9.80;99.90;;;;;;5061081;28;21345;-39
2022/03/19 08:13:06;;;;;;;11.57;9.40;;;10.00;99.90;;;;;;5061660;28;20661;-39
2022/03/19 08:15:32;;;;;;;11.43;9.23;;;10.10;99.90;;;;;;5049049;28;20440;-39
2022/03/19 08:17:59;;;;;;;12.93;8.83;;;10.10;99.90;;;;;;5056342;28;20467;-39
2022/03/19 08:20:26;;;;;;;14.70;9.33;;;10.20;99.90;;;;;;5048050;28;20462;-39
2022/03/19 08:22:51;;;;;;;13.27;10.40;;;10.10;99.90;;;;;;5052695;28;20436;-39
2022/03/19 08:25:17;;;;;;;13.57;10.00;;;10.20;99.90;;;;;;5069234;28;20901;-39
2022/03/19 08:27:43;;;;;;;14.77;10.57;;;10.10;99.90;;;;;;5069311;28;20567;-39
2022/03/19 08:30:09;;;;;;;13.27;9.40;;;10.10;99.90;;;;;;5052172;28;20706;-39
2022/03/19 08:32:34;;;;;;;9.93;8.80;;;10.10;99.90;;;;;;5052055;28;20243;-39
2022/03/19 08:35:00;;;;;;;13.20;8.83;;;10.20;99.90;;;;;;5048445;28;20439;-39
2022/03/19 08:37:26;;;;;;;10.77;9.63;;;10.30;99.90;;;;;;5048065;28;20386;-39
2022/03/19 08:42:38;;;;;;;10.43;9.23;;;10.20;99.90;;;;;;5061205;28;20431;-39
2022/03/19 08:45:04;;;;;;;10.40;9.40;;;10.20;99.90;;;;;;5048481;28;21133;-39
2022/03/19 08:47:30;;;;;;;11.47;8.57;;;10.30;99.90;;;;;;5059772;28;20246;-39
2022/03/19 08:49:56;;;;;;;14.47;9.50;;;10.40;99.90;;;;;;5048876;28;20432;-39
2022/03/19 08:52:21;;;;;;;11.50;8.80;;;10.40;99.90;;;;;;5048193;28;20272;-39
2022/03/19 08:54:47;;;;;;;11.90;8.90;;;10.40;99.90;;;;;;5053113;28;20289;-39
2022/03/19 08:57:14;;;;;;;14.03;8.13;;;10.40;99.90;;;;;;5067108;28;20257;-39
2022/03/19 08:59:40;;;;;;;13.70;9.03;;;10.50;99.90;;;;;;5047312;28;20288;-41
2022/03/19 09:02:05;;;;;;;9.33;8.00;;;10.40;99.90;;;;;;5053850;28;20514;-39
2022/03/19 09:04:34;;;;;;;13.60;8.83;;;10.40;99.90;;;;;;5049458;28;20436;-40
2022/03/19 09:07:00;;;;;;;10.33;8.63;;;10.40;99.90;;;;;;5046669;28;20224;-40
2022/03/19 09:09:25;;;;;;;9.87;8.53;;;10.70;99.90;;;;;;5049930;28;21010;-40
2022/03/19 09:11:51;;;;;;;11.20;8.73;;;10.80;99.90;;;;;;5068975;28;20184;-39
2022/03/19 09:14:18;;;;;;;13.37;8.57;;;10.80;99.90;;;;;;5047509;28;20185;-41
2022/03/19 09:16:44;;;;;;;10.47;6.97;;;11.10;99.90;;;;;;5049650;28;20172;-39
2022/03/19 09:19:09;;;;;;;12.83;7.53;;;11.00;99.90;;;;;;5048590;28;20510;-39
2022/03/19 09:21:36;;;;;;;8.60;7.50;;;10.90;99.90;;;;;;5047034;28;20647;-40
2022/03/19 09:24:04;;;;;;;10.20;7.93;;;11.10;99.90;;;;;;5053100;28;20288;-39
2022/03/19 09:26:30;;;;;;;7.67;6.87;;;11.20;99.90;;;;;;5069205;28;20449;-40
2022/03/19 09:28:56;;;;;;;10.30;6.93;;;11.20;99.90;;;;;;5055889;28;20791;-39
2022/03/19 09:31:22;;;;;;;7.20;5.80;;;11.60;99.90;;;;;;5045305;28;20527;-39
2022/03/19 09:33:48;;;;;;;11.47;5.70;;;11.50;98.80;;;;;;5047688;28;20193;-39
2022/03/19 09:36:14;;;;;;;9.90;6.13;;;11.50;99.60;;;;;;5047607;28;20201;-39
2022/03/19 09:38:41;;;;;;;10.50;6.77;;;11.50;98.70;;;;;;5046738;28;20471;-39
2022/03/19 09:41:08;;;;;;;10.90;6.50;;;11.80;99.10;;;;;;5062325;28;20428;-40
2022/03/19 09:43:34;;;;;;;8.70;6.03;;;12.00;99.10;;;;;;5056867;28;20439;-39
2022/03/19 09:46:02;;;;;;;9.87;5.53;;;12.30;99.10;;;;;;5046900;28;20526;-41
2022/03/19 09:48:27;;;;;;;6.77;5.50;;;12.40;96.80;;;;;;5056717;28;20541;-40
2022/03/19 09:50:54;;;;;;;9.63;6.43;;;12.40;97.00;;;;;;5046574;28;20434;-39
2022/03/19 09:53:23;;;;;;;7.60;5.83;;;12.50;95.40;;;;;;5046345;28;20189;-39
2022/03/19 09:55:48;;;;;;;8.03;5.20;;;12.50;95.30;;;;;;5058462;28;20470;-39
2022/03/19 09:58:15;;;;;;;6.60;4.90;;;12.60;94.90;;;;;;5056260;28;21092;-39
2022/03/19 10:00:43;;;;;;;6.70;5.00;;;12.70;94.30;;;;;;5046628;28;20185;-40
2022/03/19 10:03:11;;;;;;;8.43;5.07;;;12.70;93.50;;;;;;5053126;28;20746;-40
2022/03/19 10:08:37;;;;;;;11.20;5.73;;;12.70;92.10;;;;;;5046413;28;20436;-39
2022/03/19 10:11:13;;;;;;;6.40;4.60;;;12.80;91.20;;;;;;5063962;28;20877;-40
2022/03/19 10:13:42;;;;;;;7.27;4.90;;;12.90;91.50;;;;;;5059599;28;20854;-39
2022/03/19 10:16:09;;;;;;;8.40;5.30;;;13.00;91.50;;;;;;5057619;28;20427;-40
2022/03/19 10:18:35;;;;;;;10.40;5.10;;;13.20;91.30;;;;;;5057181;28;20474;-42
2022/03/19 10:21:12;;;;;;;6.13;4.63;;;13.30;92.20;;;;;;5050508;28;20424;-40
2022/03/19 10:23:42;;;;;;;10.10;4.70;;;13.50;91.80;;;;;;5054074;28;20793;-39
2022/03/19 10:26:22;;;;;;;8.63;6.00;;;13.50;91.70;;;;;;5073211;28;20429;-39
2022/03/19 10:28:56;;;;;;;8.17;4.07;;;13.50;90.40;;;;;;5066636;28;20926;-40
2022/03/19 10:31:32;;;;;;;4.80;4.03;;;13.60;90.40;;;;;;5050201;28;20424;-42
2022/03/19 10:33:59;;;;;;;4.30;3.40;;;13.70;86.90;;;;;;5061044;28;21282;-40
2022/03/19 10:36:35;;;;;;;5.37;3.50;;;13.70;81.20;;;;;;5050754;28;20490;-39
2022/03/19 10:39:06;;;;;;;7.10;3.40;;;13.70;79.10;;;;;;5054722;28;20587;-40
2022/03/19 10:41:36;;;;;;;4.13;2.73;;;13.80;77.80;;;;;;5069112;28;20423;-41
2022/03/19 10:44:17;;;;;;;6.20;2.50;;;13.80;73.10;;;;;;5064372;28;20439;-40
2022/03/19 10:46:49;;;;;;;4.30;2.23;;;13.70;67.30;;;;;;5050491;28;20978;-40
2022/03/19 10:49:16;;;;;;;3.07;2.27;;;13.50;68.30;;;;;;5056997;28;20440;-40
2022/03/19 10:51:47;;;;;;;3.47;2.30;;;13.50;67.40;;;;;;5049607;28;20953;-40
2022/03/19 10:54:14;;;;;;;3.33;2.03;;;13.50;65.80;;;;;;5053535;28;20438;-41
2022/03/19 10:56:44;;;;;;;5.03;2.53;;;13.70;63.30;;;;;;5065862;28;20764;-40
2022/03/19 10:59:10;;;;;;;4.00;2.03;;;13.70;62.90;;;;;;5071898;28;20845;-41
2022/03/19 11:01:36;;;;;;;2.40;1.97;;;13.80;63.00;;;;;;5050044;28;20525;-42
2022/03/19 11:04:04;;;;;;;2.77;1.67;;;13.90;62.60;;;;;;5052581;28;20669;-39
2022/03/19 11:06:34;;;;;;;1.97;1.63;;;13.90;61.00;;;;;;5050519;28;20507;-40
2022/03/19 11:09:06;;;;;;;3.87;2.07;;;13.90;59.70;;;;;;5051001;28;20451;-40
2022/03/19 11:11:40;;;;;;;3.70;1.80;;;13.80;57.80;;;;;;5072076;28;20430;-39
2022/03/19 11:14:08;;;;;;;2.63;1.30;;;13.60;56.50;;;;;;5054228;28;20439;-39
2022/03/19 11:16:37;;;;;;;2.47;1.43;;;13.40;55.90;;;;;;5050361;28;20521;-39
2022/03/19 11:19:04;;;;;;;2.03;1.40;;;13.50;56.00;;;;;;5060120;28;20504;-40
2022/03/19 11:21:32;;;;;;;2.40;1.63;;;13.60;55.00;;;;;;5049497;28;20420;-40
2022/03/19 11:24:12;;;;;;;3.27;1.50;;;13.70;56.60;;;;;;5051619;28;20424;-42
2022/03/19 11:26:39;;;;;;;2.00;1.67;;;13.80;54.30;;;;;;5053631;28;20469;-41
2022/03/19 11:29:06;;;;;;;3.67;1.83;;;13.70;54.00;;;;;;5068943;28;20431;-39
2022/03/19 11:31:32;;;;;;;4.00;1.80;;;13.60;54.60;;;;;;5049104;28;20818;-40
2022/03/19 11:34:16;;;;;;;1.90;1.20;;;13.50;53.30;;;;;;5057465;28;20490;-42
2022/03/19 11:36:59;;;;;;;2.97;1.67;;;13.50;54.30;;;;;;5049616;28;20519;-39
2022/03/19 11:39:27;;;;;;;3.37;1.50;;;13.50;54.30;;;;;;5048378;28;20472;-39
2022/03/19 11:41:53;;;;;;;5.00;2.03;;;13.70;56.00;;;;;;5054444;28;20455;-40
2022/03/19 11:44:23;;;;;;;3.63;1.53;;;13.90;56.50;;;;;;5065987;28;20436;-39
2022/03/19 11:47:03;;;;;;;3.93;1.83;;;14.10;57.00;;;;;;5049200;28;20428;-42
2022/03/19 11:49:49;;;;;;;4.20;2.07;;;14.30;57.20;;;;;;5052664;28;20432;-39
2022/03/19 11:52:44;;;;;;;4.00;1.97;;;14.30;56.90;;;;;;5049297;28;20491;-42
2022/03/19 11:55:11;;;;;;;5.53;2.20;;;14.20;55.50;;;;;;5043240;28;20437;-40
2022/03/19 11:57:46;;;;;;;3.40;2.23;;;14.30;57.10;;;;;;5065961;28;20478;-42
2022/03/19 12:00:18;;;;;;;5.13;1.97;;;14.50;57.70;;;;;;5055230;28;20450;-41
2022/03/19 12:03:24;;;;;;;4.27;1.90;;;14.60;55.70;;;;;;5051131;28;20464;-40
2022/03/19 12:05:51;;;;;;;5.57;1.97;;;14.50;54.70;;;;;;5054436;28;20431;-40
2022/03/19 12:08:21;;;;;;;4.17;1.70;;;14.30;54.10;;;;;;5049069;28;21302;-40
2022/03/19 12:11:02;;;;;;;5.07;1.97;;;14.30;55.00;;;;;;5062245;28;20444;-41
2022/03/19 12:13:28;;;;;;;2.73;1.60;;;14.30;55.70;;;;;;5063269;28;20422;-40
2022/03/19 12:15:57;;;;;;;4.50;1.20;;;14.40;54.90;;;;;;5048510;28;20423;-40
2022/03/19 12:18:23;;;;;;;3.20;1.83;;;14.30;53.20;;;;;;5054131;28;20232;-39
2022/03/19 12:20:50;;;;;;;2.90;1.40;;;14.20;52.60;;;;;;5049079;28;20458;-39
2022/03/19 12:23:17;;;;;;;2.57;1.97;;;14.20;52.80;;;;;;5049794;28;20452;-42
2022/03/19 12:26:02;;;;;;;3.90;1.83;;;14.10;53.10;;;;;;5054713;28;20443;-42
2022/03/19 12:28:29;;;;;;;2.90;1.60;;;14.00;53.00;;;;;;5068206;28;20503;-40
2022/03/19 12:31:11;;;;;;;3.63;1.87;;;14.00;54.80;;;;;;5047792;28;20914;-41
2022/03/19 12:33:38;;;;;;;2.40;1.60;;;14.10;55.70;;;;;;5050330;28;20450;-40
2022/03/19 12:36:18;;;;;;;5.67;2.23;;;14.30;56.20;;;;;;5048341;28;20519;-40
2022/03/19 12:38:45;;;;;;;5.03;2.10;;;14.50;55.60;;;;;;5046822;28;20464;-39
2022/03/19 12:41:38;;;;;;;4.17;1.77;;;14.60;57.00;;;;;;5055458;28;20957;-41
2022/03/19 12:44:28;;;;;;;3.80;1.80;;;14.70;54.20;;;;;;5063367;28;20429;-40
2022/03/19 12:47:02;;;;;;;3.17;1.90;;;14.70;53.30;;;;;;5048192;28;20523;-40
2022/03/19 12:49:30;;;;;;;3.77;1.60;;;14.70;52.20;;;;;;5059754;28;20435;-41
2022/03/19 12:52:04;;;;;;;3.43;1.60;;;14.70;53.90;;;;;;5047445;28;20857;-40
2022/03/19 12:54:31;;;;;;;6.30;1.80;;;14.60;52.00;;;;;;5047280;28;20477;-40
2022/03/19 12:56:58;;;;;;;4.10;2.07;;;14.60;52.30;;;;;;5053890;28;20451;-39
2022/03/19 12:59:28;;;;;;;2.43;1.30;;;14.60;54.20;;;;;;5070831;28;20483;-40